createdAt,value
2017-04-14T00:00:12.819Z,1011.31
2017-04-14T00:00:53.279Z,1011.25
2017-04-14T00:01:33.755Z,1011.34
2017-04-14T00:02:14.308Z,1011.28
2017-04-14T00:02:54.818Z,1011.19
2017-04-14T00:03:35.274Z,1011.34
2017-04-14T00:04:15.749Z,1011.28
2017-04-14T00:04:56.228Z,1011.18
2017-04-14T00:05:36.763Z,1011.24
2017-04-14T00:06:17.237Z,1011.19
2017-04-14T00:06:57.780Z,1011.2
2017-04-14T00:07:38.256Z,1011.18
2017-04-14T00:08:18.736Z,1011.11
2017-04-14T00:08:59.227Z,1011.27
2017-04-14T00:09:39.730Z,1011.25
2017-04-14T00:10:20.201Z,1011.3
2017-04-14T00:11:00.674Z,1011.43
2017-04-14T00:11:41.159Z,1011.41
2017-04-14T00:12:21.645Z,1011.16
2017-04-14T00:13:02.113Z,1011.42
2017-04-14T00:13:42.597Z,1011.27
2017-04-14T00:14:23.097Z,1011.07
2017-04-14T00:15:03.565Z,1011.34
2017-04-14T00:15:44.057Z,1011.23
2017-04-14T00:16:24.519Z,1011.23
2017-04-14T00:17:05.045Z,1011.29
2017-04-14T00:17:45.506Z,1011.29
2017-04-14T00:18:25.969Z,1011.27
2017-04-14T00:19:06.449Z,1011.24
2017-04-14T00:19:46.925Z,1011.14
2017-04-14T00:20:27.463Z,1011.23
2017-04-14T00:21:07.956Z,1011.16
2017-04-14T00:21:48.478Z,1011.22
2017-04-14T00:22:28.944Z,1011.24
2017-04-14T00:23:09.422Z,1011.23
2017-04-14T00:23:49.938Z,1011.26
2017-04-14T00:24:30.420Z,1011.33
2017-04-14T00:25:10.943Z,1011.27
2017-04-14T00:25:51.401Z,1011.28
2017-04-14T00:26:31.853Z,1011.23
2017-04-14T00:27:12.311Z,1011.26
2017-04-14T00:27:52.798Z,1011.26
2017-04-14T00:28:33.279Z,1011.19
2017-04-14T00:29:13.760Z,1011.31
2017-04-14T00:29:54.239Z,1011.29
2017-04-14T00:30:34.751Z,1011.34
2017-04-14T00:31:15.258Z,1011.34
2017-04-14T00:31:55.712Z,1011.24
2017-04-14T00:32:36.205Z,1011.3
2017-04-14T00:33:16.675Z,1011.14
2017-04-14T00:33:57.131Z,1011.24
2017-04-14T00:34:37.604Z,1011.19
2017-04-14T00:35:18.088Z,1011.18
2017-04-14T00:35:58.651Z,1011.22
2017-04-14T00:36:39.100Z,1011.19
2017-04-14T00:37:19.566Z,1011.22
2017-04-14T00:38:00.068Z,1011.21
2017-04-14T00:38:40.555Z,1011.16
2017-04-14T00:39:21.066Z,1011.21
2017-04-14T00:40:01.512Z,1011.23
2017-04-14T00:40:41.986Z,1011.22
2017-04-14T00:41:22.495Z,1011.16
2017-04-14T00:42:02.997Z,1011.3
2017-04-14T00:42:43.489Z,1011.21
2017-04-14T00:43:23.966Z,1011.35
2017-04-14T00:44:04.462Z,1011.21
2017-04-14T00:44:44.963Z,1011.17
2017-04-14T00:45:25.441Z,1011.2
2017-04-14T00:46:05.930Z,1011.18
2017-04-14T00:46:46.387Z,1011.29
2017-04-14T00:47:26.885Z,1011.32
2017-04-14T00:48:07.364Z,1011.2
2017-04-14T00:48:47.882Z,1011.26
2017-04-14T00:49:28.393Z,1011.32
2017-04-14T00:50:08.883Z,1011.27
2017-04-14T00:50:49.368Z,1011.12
2017-04-14T00:51:29.836Z,1011.22
2017-04-14T00:52:10.324Z,1011.22
2017-04-14T00:52:50.775Z,1011.17
2017-04-14T00:53:31.229Z,1011.17
2017-04-14T00:54:11.715Z,1011.15
2017-04-14T00:54:52.202Z,1011.19
2017-04-14T00:55:32.720Z,1011.14
2017-04-14T00:56:13.220Z,1011.1
2017-04-14T00:56:53.722Z,1011.15
2017-04-14T00:57:34.152Z,1011.19
2017-04-14T00:58:14.630Z,1011.16
2017-04-14T00:58:55.121Z,1011.16
2017-04-14T00:59:35.581Z,1011.14
2017-04-14T01:00:16.076Z,1011.09
2017-04-14T01:00:56.553Z,1011.18
2017-04-14T01:01:37.001Z,1011.26
2017-04-14T01:02:17.503Z,1011.28
2017-04-14T01:02:58.002Z,1011.26
2017-04-14T01:03:38.539Z,1011.13
2017-04-14T01:04:19.003Z,1011.18
2017-04-14T01:04:59.485Z,1011.24
2017-04-14T01:05:39.952Z,1011.33
2017-04-14T01:06:20.439Z,1011.15
2017-04-14T01:07:00.928Z,1011.21
2017-04-14T01:07:41.388Z,1011.16
2017-04-14T01:08:21.891Z,1011.21
2017-04-14T01:09:02.385Z,1011.12
2017-04-14T01:09:42.891Z,1011.15
2017-04-14T01:10:23.360Z,1011.18
2017-04-14T01:11:03.821Z,1011.16
2017-04-14T01:11:44.314Z,1011.19
2017-04-14T01:12:24.787Z,1011.27
2017-04-14T01:13:05.269Z,1011.24
2017-04-14T01:13:45.767Z,1011.16
2017-04-14T01:14:26.205Z,1011.19
2017-04-14T01:15:06.704Z,1011.23
2017-04-14T01:15:47.198Z,1011.19
2017-04-14T01:16:27.719Z,1011.12
2017-04-14T01:17:08.179Z,1011.17
2017-04-14T01:17:48.662Z,1011.14
2017-04-14T01:18:29.123Z,1011.26
2017-04-14T01:19:09.622Z,1011.15
2017-04-14T01:19:50.099Z,1011.11
2017-04-14T01:20:30.581Z,1011.19
2017-04-14T01:21:11.084Z,1011.14
2017-04-14T01:21:51.580Z,1011.2
2017-04-14T01:22:34.002Z,1011.14
2017-04-14T01:23:14.506Z,1011.23
2017-04-14T01:23:54.981Z,1011.18
2017-04-14T01:24:35.468Z,1011.24
2017-04-14T01:25:15.939Z,1011.23
2017-04-14T01:25:56.436Z,1011.18
2017-04-14T01:26:36.905Z,1011.16
2017-04-14T01:27:17.405Z,1011.18
2017-04-14T01:27:58.026Z,1011.15
2017-04-14T01:28:38.528Z,1011.12
2017-04-14T01:29:19.020Z,1011.2
2017-04-14T01:29:59.528Z,1011.07
2017-04-14T01:30:40.014Z,1011.12
2017-04-14T01:31:20.481Z,1011.12
2017-04-14T01:32:00.971Z,1011.17
2017-04-14T01:32:41.449Z,1011.15
2017-04-14T01:33:21.919Z,1011.21
2017-04-14T01:34:02.405Z,1011.13
2017-04-14T01:34:42.896Z,1011.32
2017-04-14T01:35:23.404Z,1011.14
2017-04-14T01:36:03.858Z,1011.11
2017-04-14T01:36:44.347Z,1011.01
2017-04-14T01:37:24.847Z,1011.2
2017-04-14T01:38:05.342Z,1011.12
2017-04-14T01:38:45.848Z,1011
2017-04-14T01:39:26.309Z,1011.09
2017-04-14T01:40:06.822Z,1011.11
2017-04-14T01:40:47.290Z,1011.15
2017-04-14T01:41:27.859Z,1011.32
2017-04-14T01:42:08.321Z,1011.2
2017-04-14T01:42:48.793Z,1011.14
2017-04-14T01:43:29.316Z,1011.14
2017-04-14T01:44:09.797Z,1011.17
2017-04-14T01:44:50.292Z,1011.04
2017-04-14T01:45:30.759Z,1011.14
2017-04-14T01:46:11.205Z,1011.05
2017-04-14T01:46:51.725Z,1011.1
2017-04-14T01:47:32.203Z,1011.19
2017-04-14T01:48:12.724Z,1011.15
2017-04-14T01:48:53.211Z,1011.14
2017-04-14T01:49:33.677Z,1011.11
2017-04-14T01:50:14.194Z,1011.14
2017-04-14T01:50:54.705Z,1011.15
2017-04-14T01:51:35.153Z,1011.18
2017-04-14T01:52:15.627Z,1011.25
2017-04-14T01:52:56.117Z,1011.11
2017-04-14T01:53:36.629Z,1011.17
2017-04-14T01:54:17.130Z,1011.18
2017-04-14T01:54:57.632Z,1011.21
2017-04-14T01:55:38.147Z,1011.25
2017-04-14T01:56:18.672Z,1011.15
2017-04-14T01:56:59.200Z,1011.18
2017-04-14T01:57:39.663Z,1011.25
2017-04-14T01:58:20.172Z,1011.18
2017-04-14T01:59:00.669Z,1011.11
2017-04-14T01:59:41.120Z,1011.24
2017-04-14T02:00:21.626Z,1011.09
2017-04-14T02:01:02.112Z,1011.27
2017-04-14T02:01:42.612Z,1011.24
2017-04-14T02:02:23.088Z,1011.08
2017-04-14T02:03:03.560Z,1011.07
2017-04-14T02:03:44.079Z,1011.27
2017-04-14T02:04:24.545Z,1011.16
2017-04-14T02:05:05.028Z,1011.22
2017-04-14T02:05:45.520Z,1011.28
2017-04-14T02:06:25.975Z,1011.2
2017-04-14T02:07:06.484Z,1011.19
2017-04-14T02:07:46.956Z,1011.3
2017-04-14T02:08:27.420Z,1011.36
2017-04-14T02:09:07.932Z,1011.29
2017-04-14T02:09:48.408Z,1011.26
2017-04-14T02:10:29.052Z,1011.27
2017-04-14T02:11:09.520Z,1011.14
2017-04-14T02:11:50.043Z,1011.27
2017-04-14T02:12:30.521Z,1011.18
2017-04-14T02:13:10.968Z,1011.16
2017-04-14T02:13:51.446Z,1011.22
2017-04-14T02:14:31.932Z,1011.3
2017-04-14T02:15:12.408Z,1011.24
2017-04-14T02:15:52.921Z,1011.26
2017-04-14T02:16:33.414Z,1011.27
2017-04-14T02:17:13.874Z,1011.25
2017-04-14T02:17:54.337Z,1011.2
2017-04-14T02:18:34.809Z,1011.17
2017-04-14T02:19:15.313Z,1011.2
2017-04-14T02:19:55.766Z,1011.25
2017-04-14T02:20:36.287Z,1011.22
2017-04-14T02:21:16.766Z,1011.31
2017-04-14T02:21:57.290Z,1011.28
2017-04-14T02:22:37.792Z,1011.23
2017-04-14T02:23:18.288Z,1011.24
2017-04-14T02:23:58.865Z,1011.26
2017-04-14T02:24:39.260Z,1011.22
2017-04-14T02:25:19.741Z,1011.28
2017-04-14T02:26:00.219Z,1011.37
2017-04-14T02:26:40.732Z,1011.31
2017-04-14T02:27:21.232Z,1011.27
2017-04-14T02:28:01.696Z,1011.2
2017-04-14T02:28:42.177Z,1011.21
2017-04-14T02:29:22.658Z,1011.22
2017-04-14T02:30:03.152Z,1011.17
2017-04-14T02:30:43.622Z,1011.23
2017-04-14T02:31:24.134Z,1011.24
2017-04-14T02:32:04.595Z,1011.21
2017-04-14T02:32:45.102Z,1011.25
2017-04-14T02:33:25.653Z,1011.23
2017-04-14T02:34:06.126Z,1011.25
2017-04-14T02:34:46.623Z,1011.19
2017-04-14T02:35:27.105Z,1011.24
2017-04-14T02:36:07.689Z,1011.18
2017-04-14T02:36:48.142Z,1011.21
2017-04-14T02:37:28.625Z,1011.29
2017-04-14T02:38:09.143Z,1011.14
2017-04-14T02:38:49.629Z,1011.35
2017-04-14T02:39:30.124Z,1011.23
2017-04-14T02:40:10.587Z,1011.12
2017-04-14T02:40:51.083Z,1011.17
2017-04-14T02:41:31.562Z,1011.28
2017-04-14T02:42:12.050Z,1011.19
2017-04-14T02:42:52.538Z,1011.15
2017-04-14T02:43:33.084Z,1011.17
2017-04-14T02:44:13.548Z,1011.15
2017-04-14T02:44:54.046Z,1011.19
2017-04-14T02:45:34.526Z,1011.09
2017-04-14T02:46:15.029Z,1011.14
2017-04-14T02:46:55.527Z,1011.14
2017-04-14T02:47:36.037Z,1011.19
2017-04-14T02:48:16.510Z,1011.18
2017-04-14T02:48:57.002Z,1011.15
2017-04-14T02:49:37.468Z,1011.1
2017-04-14T02:50:18.030Z,1011.16
2017-04-14T02:50:58.524Z,1011.14
2017-04-14T02:51:39.048Z,1011.13
2017-04-14T02:52:19.529Z,1011.2
2017-04-14T02:53:00.021Z,1011.21
2017-04-14T02:53:40.518Z,1011.14
2017-04-14T02:54:21.028Z,1011.07
2017-04-14T02:55:01.493Z,1011.18
2017-04-14T02:55:41.971Z,1011.13
2017-04-14T02:56:22.427Z,1011.05
2017-04-14T02:57:03.000Z,1011.18
2017-04-14T02:57:43.432Z,1011.06
2017-04-14T02:58:23.920Z,1011.14
2017-04-14T02:59:04.405Z,1011.11
2017-04-14T02:59:44.933Z,1011.28
2017-04-14T03:00:25.416Z,1011.25
2017-04-14T03:01:05.924Z,1011.19
2017-04-14T03:01:46.396Z,1011.08
2017-04-14T03:02:26.885Z,1011.19
2017-04-14T03:03:07.393Z,1011.18
2017-04-14T03:03:47.911Z,1011.12
2017-04-14T03:04:28.414Z,1011.17
2017-04-14T03:05:08.862Z,1011.14
2017-04-14T03:05:49.337Z,1011.16
2017-04-14T03:06:29.860Z,1011.13
2017-04-14T03:07:10.389Z,1011.16
2017-04-14T03:07:50.854Z,1011.16
2017-04-14T03:08:31.366Z,1011.16
2017-04-14T03:09:11.842Z,1011.14
2017-04-14T03:09:52.349Z,1011.15
2017-04-14T03:10:32.871Z,1011.13
2017-04-14T03:11:13.338Z,1011.09
2017-04-14T03:11:53.795Z,1011.14
2017-04-14T03:12:34.284Z,1011.1
2017-04-14T03:13:14.766Z,1011.02
2017-04-14T03:13:55.245Z,1011.12
2017-04-14T03:14:35.747Z,1011.02
2017-04-14T03:15:16.247Z,1011.2
2017-04-14T03:15:56.693Z,1011.23
2017-04-14T03:16:37.218Z,1011.03
2017-04-14T03:17:17.716Z,1011.21
2017-04-14T03:17:58.179Z,1011.2
2017-04-14T03:20:26.588Z,1011.19
2017-04-14T03:21:07.054Z,1011.13
2017-04-14T03:21:47.548Z,1011.09
2017-04-14T03:22:28.047Z,1011.23
2017-04-14T03:23:08.543Z,1011.17
2017-04-14T03:23:49.023Z,1011.11
2017-04-14T03:24:29.541Z,1011.14
2017-04-14T03:25:10.018Z,1011
2017-04-14T03:25:50.516Z,1011.19
2017-04-14T03:26:30.995Z,1011.08
2017-04-14T03:27:11.471Z,1011.09
2017-04-14T03:27:51.934Z,1011.16
2017-04-14T03:28:32.435Z,1011.13
2017-04-14T03:29:12.926Z,1011.13
2017-04-14T03:29:53.433Z,1011.15
2017-04-14T03:30:33.926Z,1011.15
2017-04-14T03:31:14.427Z,1011.13
2017-04-14T03:31:54.911Z,1011.19
2017-04-14T03:32:35.416Z,1011.07
2017-04-14T03:33:15.883Z,1011.13
2017-04-14T03:33:56.359Z,1011.24
2017-04-14T03:34:36.830Z,1011.2
2017-04-14T03:35:17.308Z,1011.21
2017-04-14T03:35:57.807Z,1011.16
2017-04-14T03:36:38.293Z,1011.12
2017-04-14T03:37:18.764Z,1011.2
2017-04-14T03:37:59.233Z,1011.15
2017-04-14T03:38:39.716Z,1011.12
2017-04-14T03:39:20.200Z,1011.21
2017-04-14T03:40:00.665Z,1011.21
2017-04-14T03:40:41.149Z,1011.17
2017-04-14T03:41:21.701Z,1011.19
2017-04-14T03:42:02.156Z,1011.1
2017-04-14T03:42:42.709Z,1011.18
2017-04-14T03:43:23.154Z,1011.19
2017-04-14T03:44:03.642Z,1011.19
2017-04-14T03:44:44.146Z,1011.19
2017-04-14T03:45:24.633Z,1011.18
2017-04-14T03:46:05.077Z,1011.19
2017-04-14T03:46:45.575Z,1011.21
2017-04-14T03:47:26.059Z,1011.16
2017-04-14T03:48:06.541Z,1011.19
2017-04-14T03:48:47.013Z,1011.2
2017-04-14T03:49:27.494Z,1011.24
2017-04-14T03:50:08.015Z,1011.22
2017-04-14T03:50:48.542Z,1011.15
2017-04-14T03:51:29.013Z,1011.19
2017-04-14T03:52:09.476Z,1011.14
2017-04-14T03:52:49.953Z,1011.2
2017-04-14T03:53:30.421Z,1011.2
2017-04-14T03:54:10.917Z,1011.1
2017-04-14T03:54:51.390Z,1011.17
2017-04-14T03:55:31.884Z,1011.2
2017-04-14T03:57:50.178Z,1011.17
2017-04-14T03:58:30.627Z,1011.18
2017-04-14T03:59:11.157Z,1011.23
2017-04-14T03:59:51.594Z,1011.25
2017-04-14T04:00:32.069Z,1011.15
2017-04-14T04:01:12.523Z,1011.21
2017-04-14T04:01:53.029Z,1011.25
2017-04-14T04:02:33.500Z,1011.2
2017-04-14T04:03:13.967Z,1011.22
2017-04-14T04:03:54.449Z,1011.19
2017-04-14T04:04:34.911Z,1011.27
2017-04-14T04:05:15.382Z,1011.29
2017-04-14T04:05:55.874Z,1011.25
2017-04-14T04:06:36.346Z,1011.26
2017-04-14T04:07:16.827Z,1011.23
2017-04-14T04:07:57.345Z,1011.2
2017-04-14T04:08:37.855Z,1011.18
2017-04-14T04:09:18.335Z,1011.22
2017-04-14T04:09:58.923Z,1011.19
2017-04-14T04:10:39.415Z,1011.27
2017-04-14T04:11:19.909Z,1011.2
2017-04-14T04:12:00.396Z,1011.23
2017-04-14T04:12:40.858Z,1011.19
2017-04-14T04:13:21.342Z,1011.22
2017-04-14T04:14:01.839Z,1011.23
2017-04-14T04:14:42.303Z,1011.22
2017-04-14T04:15:22.781Z,1011.17
2017-04-14T04:16:03.266Z,1011.34
2017-04-14T04:16:43.745Z,1011.26
2017-04-14T04:17:24.252Z,1011.25
2017-04-14T04:18:04.716Z,1011.24
2017-04-14T04:18:45.197Z,1011.14
2017-04-14T04:19:25.666Z,1011.16
2017-04-14T04:20:06.180Z,1011.28
2017-04-14T04:20:46.647Z,1011.14
2017-04-14T04:21:27.098Z,1011.21
2017-04-14T04:22:07.597Z,1011.2
2017-04-14T04:22:48.106Z,1011.15
2017-04-14T04:23:28.594Z,1011.27
2017-04-14T04:24:09.074Z,1011.22
2017-04-14T04:24:49.587Z,1011.23
2017-04-14T04:25:30.057Z,1011.18
2017-04-14T04:26:10.550Z,1011.18
2017-04-14T04:26:51.011Z,1011.23
2017-04-14T04:27:31.508Z,1011.22
2017-04-14T04:28:11.981Z,1011.23
2017-04-14T04:28:52.485Z,1011.17
2017-04-14T04:29:32.969Z,1011.11
2017-04-14T04:30:13.454Z,1011.11
2017-04-14T04:30:53.952Z,1011.1
2017-04-14T04:31:34.448Z,1011.12
2017-04-14T04:32:14.938Z,1011.15
2017-04-14T04:32:55.392Z,1011.07
2017-04-14T04:33:35.865Z,1011.05
2017-04-14T04:34:16.355Z,1011.02
2017-04-14T04:34:56.849Z,1011.06
2017-04-14T04:35:37.291Z,1011.01
2017-04-14T04:36:17.825Z,1011.02
2017-04-14T04:36:58.312Z,1011.02
2017-04-14T04:37:38.777Z,1010.99
2017-04-14T04:38:19.304Z,1011
2017-04-14T04:38:59.793Z,1011.02
2017-04-14T04:39:40.276Z,1011.06
2017-04-14T04:40:20.776Z,1011.08
2017-04-14T04:41:01.258Z,1011.05
2017-04-14T04:41:41.697Z,1010.98
2017-04-14T04:42:22.203Z,1011.04
2017-04-14T04:43:02.659Z,1011.07
2017-04-14T04:43:43.206Z,1011.06
2017-04-14T04:44:23.721Z,1011.15
2017-04-14T04:45:04.215Z,1011.03
2017-04-14T04:45:44.663Z,1011.13
2017-04-14T04:46:25.150Z,1011.24
2017-04-14T04:47:05.651Z,1011.11
2017-04-14T04:47:46.134Z,1011.13
2017-04-14T04:48:26.611Z,1011.06
2017-04-14T04:49:07.086Z,1011.14
2017-04-14T04:49:47.578Z,1011.2
2017-04-14T04:50:28.080Z,1011.16
2017-04-14T04:51:08.610Z,1011.13
2017-04-14T04:51:49.049Z,1011.14
2017-04-14T04:52:29.545Z,1011.21
2017-04-14T04:53:10.080Z,1011.2
2017-04-14T04:53:50.571Z,1011.21
2017-04-14T04:54:31.043Z,1011.22
2017-04-14T04:55:11.528Z,1011.25
2017-04-14T04:55:52.041Z,1011.3
2017-04-14T04:56:32.509Z,1011.33
2017-04-14T04:57:13.063Z,1011.26
2017-04-14T04:57:53.566Z,1011.31
2017-04-14T04:58:34.051Z,1011.29
2017-04-14T04:59:14.536Z,1011.3
2017-04-14T04:59:55.025Z,1011.27
2017-04-14T05:00:35.519Z,1011.22
2017-04-14T05:01:16.017Z,1011.24
2017-04-14T05:01:56.462Z,1011.26
2017-04-14T05:02:36.963Z,1011.22
2017-04-14T05:03:17.419Z,1011.27
2017-04-14T05:03:57.919Z,1011.18
2017-04-14T05:04:38.389Z,1011.27
2017-04-14T05:05:18.899Z,1011.3
2017-04-14T05:05:59.386Z,1011.26
2017-04-14T05:06:39.855Z,1011.25
2017-04-14T05:07:20.360Z,1011.26
2017-04-14T05:08:00.842Z,1011.23
2017-04-14T05:08:43.246Z,1011.24
2017-04-14T05:09:23.719Z,1011.25
2017-04-14T05:10:04.204Z,1011.22
2017-04-14T05:10:44.717Z,1011.27
2017-04-14T05:11:25.210Z,1011.29
2017-04-14T05:12:05.711Z,1011.3
2017-04-14T05:12:46.191Z,1011.28
2017-04-14T05:13:26.693Z,1011.31
2017-04-14T05:14:07.151Z,1011.3
2017-04-14T05:14:47.621Z,1011.34
2017-04-14T05:15:28.110Z,1011.37
2017-04-14T05:16:08.595Z,1011.41
2017-04-14T05:16:49.089Z,1011.41
2017-04-14T05:17:29.565Z,1011.49
2017-04-14T05:18:10.061Z,1011.39
2017-04-14T05:18:50.568Z,1011.43
2017-04-14T05:19:31.006Z,1011.51
2017-04-14T05:20:11.488Z,1011.43
2017-04-14T05:20:51.992Z,1011.46
2017-04-14T05:21:32.438Z,1011.5
2017-04-14T05:22:13.026Z,1011.51
2017-04-14T05:22:53.508Z,1011.48
2017-04-14T05:23:33.976Z,1011.47
2017-04-14T05:24:14.484Z,1011.51
2017-04-14T05:24:54.939Z,1011.54
2017-04-14T05:25:35.417Z,1011.61
2017-04-14T05:26:15.917Z,1011.55
2017-04-14T05:26:56.410Z,1011.56
2017-04-14T05:27:36.878Z,1011.56
2017-04-14T05:28:17.379Z,1011.54
2017-04-14T05:28:57.905Z,1011.55
2017-04-14T05:29:38.359Z,1011.54
2017-04-14T05:30:18.841Z,1011.53
2017-04-14T05:30:59.324Z,1011.46
2017-04-14T05:31:39.818Z,1011.46
2017-04-14T05:32:20.324Z,1011.54
2017-04-14T05:33:00.797Z,1011.51
2017-04-14T05:33:41.324Z,1011.54
2017-04-14T05:34:21.806Z,1011.5
2017-04-14T05:35:02.306Z,1011.52
2017-04-14T05:35:42.838Z,1011.61
2017-04-14T05:36:23.322Z,1011.62
2017-04-14T05:37:03.802Z,1011.6
2017-04-14T05:37:44.282Z,1011.59
2017-04-14T05:38:24.794Z,1011.61
2017-04-14T05:39:05.284Z,1011.56
2017-04-14T05:39:45.792Z,1011.62
2017-04-14T05:40:26.243Z,1011.69
2017-04-14T05:41:06.756Z,1011.57
2017-04-14T05:41:47.218Z,1011.57
2017-04-14T05:42:27.699Z,1011.58
2017-04-14T05:43:08.240Z,1011.56
2017-04-14T05:43:48.703Z,1011.57
2017-04-14T05:44:29.182Z,1011.52
2017-04-14T05:45:09.696Z,1011.65
2017-04-14T05:45:50.218Z,1011.55
2017-04-14T05:46:30.685Z,1011.57
2017-04-14T05:47:11.161Z,1011.63
2017-04-14T05:47:51.658Z,1011.54
2017-04-14T05:48:32.138Z,1011.59
2017-04-14T05:49:12.620Z,1011.5
2017-04-14T05:49:53.136Z,1011.55
2017-04-14T05:50:33.627Z,1011.48
2017-04-14T05:51:14.101Z,1011.47
2017-04-14T05:51:54.566Z,1011.53
2017-04-14T05:52:35.045Z,1011.42
2017-04-14T05:53:15.508Z,1011.48
2017-04-14T05:53:56.001Z,1011.47
2017-04-14T05:54:36.470Z,1011.43
2017-04-14T05:55:16.944Z,1011.41
2017-04-14T05:55:57.423Z,1011.39
2017-04-14T05:56:37.929Z,1011.4
2017-04-14T05:57:18.417Z,1011.39
2017-04-14T05:57:59.031Z,1011.38
2017-04-14T05:58:39.517Z,1011.39
2017-04-14T05:59:19.996Z,1011.4
2017-04-14T06:00:00.491Z,1011.36
2017-04-14T06:00:41.028Z,1011.38
2017-04-14T06:01:21.545Z,1011.39
2017-04-14T06:02:02.027Z,1011.41
2017-04-14T06:02:42.527Z,1011.39
2017-04-14T06:03:23.066Z,1011.37
2017-04-14T06:04:03.514Z,1011.4
2017-04-14T06:04:44.012Z,1011.4
2017-04-14T06:05:24.500Z,1011.37
2017-04-14T06:06:04.992Z,1011.43
2017-04-14T06:06:45.499Z,1011.4
2017-04-14T06:07:25.991Z,1011.41
2017-04-14T06:08:06.473Z,1011.43
2017-04-14T06:08:46.958Z,1011.43
2017-04-14T06:09:28.396Z,1011.41
2017-04-14T06:11:21.547Z,1011.45
2017-04-14T06:12:01.891Z,1011.46
2017-04-14T06:12:42.422Z,1011.42
2017-04-14T06:13:22.918Z,1011.49
2017-04-14T06:14:03.392Z,1011.47
2017-04-14T06:14:43.889Z,1011.43
2017-04-14T06:15:24.346Z,1011.45
2017-04-14T06:16:04.834Z,1011.46
2017-04-14T06:16:45.362Z,1011.49
2017-04-14T06:17:25.864Z,1011.47
2017-04-14T06:18:06.344Z,1011.42
2017-04-14T06:18:46.833Z,1011.42
2017-04-14T06:19:27.337Z,1011.45
2017-04-14T06:20:07.805Z,1011.45
2017-04-14T06:20:48.388Z,1011.46
2017-04-14T06:21:28.847Z,1011.43
2017-04-14T06:22:09.327Z,1011.46
2017-04-14T06:22:49.780Z,1011.51
2017-04-14T06:23:30.260Z,1011.49
2017-04-14T06:24:10.737Z,1011.48
2017-04-14T06:24:51.250Z,1011.49
2017-04-14T06:25:31.710Z,1011.49
2017-04-14T06:26:12.190Z,1011.48
2017-04-14T06:26:52.652Z,1011.52
2017-04-14T06:27:33.188Z,1011.49
2017-04-14T06:28:13.662Z,1011.51
2017-04-14T06:28:54.160Z,1011.56
2017-04-14T06:29:34.644Z,1011.52
2017-04-14T06:30:15.135Z,1011.55
2017-04-14T06:30:55.624Z,1011.53
2017-04-14T06:31:36.142Z,1011.58
2017-04-14T06:32:16.627Z,1011.58
2017-04-14T06:32:57.117Z,1011.58
2017-04-14T06:33:37.606Z,1011.54
2017-04-14T06:34:18.107Z,1011.52
2017-04-14T06:34:58.559Z,1011.59
2017-04-14T06:35:39.041Z,1011.57
2017-04-14T06:36:19.532Z,1011.6
2017-04-14T06:36:59.999Z,1011.58
2017-04-14T06:37:40.461Z,1011.59
2017-04-14T06:38:20.941Z,1011.53
2017-04-14T06:39:01.408Z,1011.63
2017-04-14T06:39:41.938Z,1011.6
2017-04-14T06:40:22.421Z,1011.55
2017-04-14T06:41:02.933Z,1011.58
2017-04-14T06:41:43.424Z,1011.6
2017-04-14T06:42:23.890Z,1011.67
2017-04-14T06:43:04.381Z,1011.58
2017-04-14T06:43:44.869Z,1011.62
2017-04-14T06:44:25.343Z,1011.6
2017-04-14T06:45:05.833Z,1011.66
2017-04-14T06:45:46.323Z,1011.58
2017-04-14T06:46:26.816Z,1011.59
2017-04-14T06:47:07.271Z,1011.54
2017-04-14T06:47:47.764Z,1011.57
2017-04-14T06:48:28.326Z,1011.63
2017-04-14T06:49:08.817Z,1011.61
2017-04-14T06:49:49.339Z,1011.61
2017-04-14T06:50:29.833Z,1011.59
2017-04-14T06:51:10.365Z,1011.66
2017-04-14T06:51:50.858Z,1011.62
2017-04-14T06:52:31.297Z,1011.64
2017-04-14T06:53:11.803Z,1011.66
2017-04-14T06:53:52.296Z,1011.63
2017-04-14T06:54:32.785Z,1011.67
2017-04-14T06:55:13.265Z,1011.57
2017-04-14T06:55:53.742Z,1011.58
2017-04-14T06:56:34.248Z,1011.62
2017-04-14T06:57:14.752Z,1011.66
2017-04-14T06:57:55.239Z,1011.66
2017-04-14T06:58:35.709Z,1011.53
2017-04-14T06:59:16.216Z,1011.67
2017-04-14T06:59:56.703Z,1011.54
2017-04-14T07:00:37.171Z,1011.56
2017-04-14T07:01:17.679Z,1011.57
2017-04-14T07:01:58.177Z,1011.59
2017-04-14T07:02:38.654Z,1011.7
2017-04-14T07:03:19.131Z,1011.57
2017-04-14T07:03:59.613Z,1011.55
2017-04-14T07:04:40.092Z,1011.6
2017-04-14T07:05:20.635Z,1011.63
2017-04-14T07:06:01.100Z,1011.61
2017-04-14T07:06:41.572Z,1011.65
2017-04-14T07:07:22.071Z,1011.62
2017-04-14T07:08:02.560Z,1011.69
2017-04-14T07:08:43.013Z,1011.65
2017-04-14T07:09:23.510Z,1011.74
2017-04-14T07:10:03.992Z,1011.66
2017-04-14T07:10:44.467Z,1011.69
2017-04-14T07:11:24.925Z,1011.63
2017-04-14T07:12:05.415Z,1011.64
2017-04-14T07:12:45.910Z,1011.72
2017-04-14T07:13:26.421Z,1011.7
2017-04-14T07:14:06.862Z,1011.64
2017-04-14T07:14:47.350Z,1011.68
2017-04-14T07:15:27.847Z,1011.66
2017-04-14T07:16:08.411Z,1011.63
2017-04-14T07:16:48.854Z,1011.59
2017-04-14T07:17:29.354Z,1011.69
2017-04-14T07:18:09.822Z,1011.66
2017-04-14T07:18:50.306Z,1011.64
2017-04-14T07:19:30.806Z,1011.76
2017-04-14T07:20:11.259Z,1011.65
2017-04-14T07:20:51.732Z,1011.69
2017-04-14T07:21:32.186Z,1011.67
2017-04-14T07:22:12.667Z,1011.7
2017-04-14T07:22:53.214Z,1011.64
2017-04-14T07:23:33.692Z,1011.66
2017-04-14T07:24:14.181Z,1011.69
2017-04-14T07:24:54.662Z,1011.68
2017-04-14T07:25:49.825Z,1011.73
2017-04-14T07:26:30.302Z,1011.68
2017-04-14T07:27:10.780Z,1011.69
2017-04-14T07:27:51.243Z,1011.55
2017-04-14T07:28:31.724Z,1011.69
2017-04-14T07:29:12.212Z,1011.64
2017-04-14T07:29:52.691Z,1011.61
2017-04-14T07:30:33.209Z,1011.62
2017-04-14T07:31:13.720Z,1011.62
2017-04-14T07:31:54.218Z,1011.62
2017-04-14T07:32:34.684Z,1011.61
2017-04-14T07:33:15.168Z,1011.58
2017-04-14T07:33:55.646Z,1011.64
2017-04-14T07:34:36.145Z,1011.61
2017-04-14T07:35:16.618Z,1011.69
2017-04-14T07:35:57.131Z,1011.6
2017-04-14T07:36:37.653Z,1011.6
2017-04-14T07:37:18.192Z,1011.61
2017-04-14T07:37:58.685Z,1011.63
2017-04-14T07:38:39.159Z,1011.57
2017-04-14T07:39:19.645Z,1011.69
2017-04-14T07:40:00.136Z,1011.65
2017-04-14T07:40:40.650Z,1011.61
2017-04-14T07:41:21.169Z,1011.7
2017-04-14T07:42:01.690Z,1011.67
2017-04-14T07:42:42.160Z,1011.67
2017-04-14T07:43:22.637Z,1011.58
2017-04-14T07:44:03.139Z,1011.66
2017-04-14T07:44:43.609Z,1011.66
2017-04-14T07:45:24.130Z,1011.68
2017-04-14T07:46:04.618Z,1011.65
2017-04-14T07:46:45.117Z,1011.64
2017-04-14T07:47:25.616Z,1011.65
2017-04-14T07:48:06.111Z,1011.71
2017-04-14T07:48:46.561Z,1011.71
2017-04-14T07:49:27.075Z,1011.66
2017-04-14T07:50:07.512Z,1011.7
2017-04-14T07:50:48.064Z,1011.7
2017-04-14T07:51:28.524Z,1011.66
2017-04-14T07:52:08.975Z,1011.73
2017-04-14T07:52:49.458Z,1011.64
2017-04-14T07:53:29.958Z,1011.69
2017-04-14T07:54:10.407Z,1011.68
2017-04-14T07:54:50.891Z,1011.73
2017-04-14T07:55:31.380Z,1011.74
2017-04-14T07:56:11.883Z,1011.69
2017-04-14T07:56:52.410Z,1011.73
2017-04-14T07:57:32.894Z,1011.74
2017-04-14T07:58:13.437Z,1011.65
2017-04-14T07:58:53.957Z,1011.69
2017-04-14T07:59:34.467Z,1011.67
2017-04-14T08:00:14.960Z,1011.71
2017-04-14T08:00:55.483Z,1011.69
2017-04-14T08:01:35.979Z,1011.73
2017-04-14T08:02:16.433Z,1011.76
2017-04-14T08:02:59.875Z,1011.71
2017-04-14T08:03:40.351Z,1011.74
2017-04-14T08:04:20.834Z,1011.78
2017-04-14T08:05:01.334Z,1011.77
2017-04-14T08:05:41.846Z,1011.71
2017-04-14T08:06:22.313Z,1011.68
2017-04-14T08:07:02.801Z,1011.75
2017-04-14T08:07:43.327Z,1011.77
2017-04-14T08:08:23.816Z,1011.76
2017-04-14T08:09:04.344Z,1011.73
2017-04-14T08:09:44.791Z,1011.68
2017-04-14T08:10:25.241Z,1011.81
2017-04-14T08:11:05.734Z,1011.81
2017-04-14T08:11:46.236Z,1011.72
2017-04-14T08:12:26.744Z,1011.83
2017-04-14T08:13:07.209Z,1011.74
2017-04-14T08:13:47.715Z,1011.91
2017-04-14T08:14:28.305Z,1011.81
2017-04-14T08:15:08.791Z,1011.83
2017-04-14T08:15:49.257Z,1011.99
2017-04-14T08:16:29.849Z,1011.87